createdAt,value
2023-05-10T00:00:39.875Z,55.24
2023-05-10T00:03:11.573Z,55.38
2023-05-10T00:05:38.058Z,55.38
2023-05-10T00:08:04.611Z,55.50
2023-05-10T00:10:30.979Z,55.50
2023-05-10T00:12:57.321Z,55.49
2023-05-10T00:15:23.670Z,55.55
2023-05-10T00:17:49.981Z,55.57
2023-05-10T00:20:16.753Z,55.70
2023-05-10T00:22:43.314Z,55.67
2023-05-10T00:25:09.671Z,55.70
2023-05-10T00:27:36.008Z,55.75
2023-05-10T00:30:02.322Z,55.85
2023-05-10T00:32:29.082Z,55.89
2023-05-10T00:34:55.642Z,55.91
2023-05-10T00:37:22.469Z,56.09
2023-05-10T00:39:49.283Z,56.36
2023-05-10T00:42:15.777Z,56.41
2023-05-10T00:44:42.837Z,56.36
2023-05-10T00:47:09.548Z,56.45
2023-05-10T00:49:36.558Z,56.45
2023-05-10T00:52:03.038Z,56.45
2023-05-10T00:54:29.494Z,56.51
2023-05-10T00:56:55.935Z,56.54
2023-05-10T00:59:22.460Z,56.54
2023-05-10T01:02:37.707Z,56.63
2023-05-10T01:05:04.494Z,56.81
2023-05-10T01:07:31.094Z,57.03
2023-05-10T01:09:57.644Z,57.08
2023-05-10T01:12:24.104Z,57.09
2023-05-10T01:14:50.496Z,57.25
2023-05-10T01:17:16.938Z,57.46
2023-05-10T01:19:43.219Z,57.56
2023-05-10T01:22:16.388Z,57.64
2023-05-10T01:24:45.751Z,57.62
2023-05-10T01:27:30.423Z,57.63
2023-05-10T01:30:14.886Z,57.69
2023-05-10T01:32:54.091Z,57.70
2023-05-10T01:35:31.186Z,57.72
2023-05-10T01:38:07.973Z,57.75
2023-05-10T01:40:48.249Z,57.76
2023-05-10T01:43:19.756Z,57.79
2023-05-10T01:46:04.026Z,57.81
2023-05-10T01:48:32.313Z,57.88
2023-05-10T01:51:00.171Z,57.93
2023-05-10T01:53:26.885Z,57.95
2023-05-10T01:55:54.178Z,58.04
2023-05-10T01:58:22.935Z,58.13
2023-05-10T02:00:50.836Z,58.28
2023-05-10T02:03:20.965Z,58.33
2023-05-10T02:05:48.771Z,58.34
2023-05-10T02:08:16.137Z,58.44
2023-05-10T02:10:43.288Z,58.46
2023-05-10T02:13:10.401Z,58.50
2023-05-10T02:15:37.763Z,58.58
2023-05-10T02:18:05.624Z,58.71
2023-05-10T02:20:32.667Z,58.81
2023-05-10T02:22:59.786Z,58.87
2023-05-10T02:25:27.377Z,58.94
2023-05-10T02:27:55.479Z,59.06
2023-05-10T02:30:22.545Z,59.14
2023-05-10T02:32:50.994Z,59.33
2023-05-10T02:35:17.315Z,59.36
2023-05-10T02:37:44.139Z,59.46
2023-05-10T02:40:10.641Z,59.53
2023-05-10T02:42:37.875Z,59.70
2023-05-10T02:45:08.173Z,59.64
2023-05-10T02:47:35.544Z,59.82
2023-05-10T02:50:02.202Z,59.79
2023-05-10T02:52:37.239Z,59.80
2023-05-10T02:55:05.627Z,59.90
2023-05-10T02:57:33.679Z,60.04
2023-05-10T03:00:00.753Z,60.05
2023-05-10T03:02:27.165Z,60.09
2023-05-10T03:04:53.480Z,60.19
2023-05-10T03:07:19.964Z,60.24
2023-05-10T03:09:48.370Z,60.27
2023-05-10T03:12:33.577Z,60.31
2023-05-10T03:15:14.140Z,60.37
2023-05-10T03:17:46.545Z,60.40
2023-05-10T03:20:17.154Z,60.64
2023-05-10T03:22:52.067Z,60.69
2023-05-10T03:25:20.044Z,60.85
2023-05-10T03:27:47.125Z,61.01
2023-05-10T03:30:13.982Z,60.99
2023-05-10T03:32:41.549Z,60.95
2023-05-10T03:35:08.472Z,61.04
2023-05-10T03:37:35.793Z,61.30
2023-05-10T03:40:02.566Z,61.08
2023-05-10T03:42:30.343Z,61.07
2023-05-10T03:44:56.722Z,61.09
2023-05-10T03:47:23.551Z,61.02
2023-05-10T03:49:49.820Z,60.97
2023-05-10T03:52:16.380Z,61.02
2023-05-10T03:54:42.775Z,60.89
2023-05-10T03:57:09.454Z,60.85
2023-05-10T03:59:35.827Z,60.78
2023-05-10T04:02:02.186Z,60.86
2023-05-10T04:04:28.489Z,61.61
2023-05-10T04:06:54.801Z,62.18
2023-05-10T04:09:21.212Z,61.96
2023-05-10T04:11:47.572Z,61.96
2023-05-10T04:14:13.936Z,64.60
2023-05-10T04:16:40.225Z,64.86
2023-05-10T04:19:06.477Z,64.17
2023-05-10T04:21:32.766Z,63.60
2023-05-10T04:23:59.266Z,64.45
2023-05-10T04:26:25.632Z,65.04
2023-05-10T04:28:51.848Z,65.86
2023-05-10T04:31:18.147Z,65.71
2023-05-10T04:33:44.617Z,66.05
2023-05-10T04:36:11.320Z,66.52
2023-05-10T04:38:37.799Z,66.19
2023-05-10T04:41:04.813Z,63.59
2023-05-10T04:43:31.106Z,64.47
2023-05-10T04:45:57.400Z,65.39
2023-05-10T04:48:23.670Z,64.56
2023-05-10T04:50:50.055Z,63.88
2023-05-10T04:53:16.343Z,65.16
2023-05-10T04:55:42.609Z,65.21
2023-05-10T04:58:09.405Z,64.86
2023-05-10T05:00:35.692Z,63.84
2023-05-10T05:03:02.051Z,64.62
2023-05-10T05:05:28.433Z,64.00
2023-05-10T05:07:54.704Z,63.43
2023-05-10T05:10:20.961Z,63.97
2023-05-10T05:12:47.266Z,62.53
2023-05-10T05:15:13.590Z,61.63
2023-05-10T05:17:39.962Z,62.79
2023-05-10T05:20:06.654Z,63.63
2023-05-10T05:22:32.923Z,63.49
2023-05-10T05:24:59.186Z,63.39
2023-05-10T05:27:25.459Z,63.96
2023-05-10T05:29:55.937Z,62.63
2023-05-10T05:32:22.639Z,62.01
2023-05-10T05:34:49.062Z,62.12
2023-05-10T05:37:16.370Z,62.65
2023-05-10T05:39:43.097Z,63.26
2023-05-10T05:42:09.818Z,63.12
2023-05-10T05:44:36.293Z,61.70
2023-05-10T05:47:02.585Z,60.83
2023-05-10T05:49:29.209Z,60.72
2023-05-10T05:51:58.781Z,61.46
2023-05-10T05:54:25.042Z,62.16
2023-05-10T05:56:51.336Z,61.32
2023-05-10T05:59:17.645Z,61.71
2023-05-10T06:01:43.924Z,61.04
2023-05-10T06:04:10.251Z,60.50
2023-05-10T06:06:36.578Z,60.54
2023-05-10T06:09:02.861Z,60.42
2023-05-10T06:11:29.119Z,60.33
2023-05-10T06:13:55.514Z,60.03
2023-05-10T06:16:21.829Z,59.25
2023-05-10T06:18:48.167Z,60.01
2023-05-10T06:21:14.453Z,58.88
2023-05-10T06:23:40.864Z,58.83
2023-05-10T06:26:07.215Z,59.53
2023-05-10T06:28:33.450Z,58.39
2023-05-10T06:31:00.261Z,57.58
2023-05-10T06:33:26.622Z,57.52
2023-05-10T06:35:52.922Z,57.16
2023-05-10T06:38:19.218Z,56.89
2023-05-10T06:40:45.516Z,56.80
2023-05-10T06:43:11.780Z,55.92
2023-05-10T06:45:38.112Z,55.26
2023-05-10T06:48:04.676Z,55.58
2023-05-10T06:50:31.140Z,54.70
2023-05-10T06:52:57.383Z,53.39
2023-05-10T06:55:23.669Z,54.42
2023-05-10T06:57:50.036Z,54.26
2023-05-10T07:00:16.977Z,53.67
2023-05-10T07:02:43.469Z,54.09
2023-05-10T07:05:09.795Z,53.96
2023-05-10T07:07:36.150Z,53.72
2023-05-10T07:10:02.645Z,52.94
2023-05-10T07:12:29.018Z,52.85
2023-05-10T07:14:55.517Z,52.42
2023-05-10T07:17:21.893Z,52.67
2023-05-10T07:19:48.241Z,52.27
2023-05-10T07:22:15.381Z,50.49
2023-05-10T07:24:41.648Z,49.09
2023-05-10T07:27:07.944Z,50.47
2023-05-10T07:29:34.279Z,49.33
2023-05-10T07:32:00.734Z,48.73
2023-05-10T07:34:27.239Z,48.95
2023-05-10T07:36:53.537Z,48.57
2023-05-10T07:39:26.717Z,48.09
2023-05-10T07:41:54.282Z,48.11
2023-05-10T07:44:20.595Z,48.14
2023-05-10T07:46:47.186Z,47.82
2023-05-10T07:49:13.619Z,47.37
2023-05-10T07:51:40.258Z,46.89
2023-05-10T07:54:06.518Z,46.85
2023-05-10T07:56:33.083Z,46.29
2023-05-10T07:58:59.771Z,46.16
2023-05-10T08:01:27.432Z,45.81
2023-05-10T08:03:53.887Z,45.46
2023-05-10T08:06:20.890Z,45.16
2023-05-10T08:08:48.000Z,43.57
2023-05-10T08:11:14.349Z,45.24
2023-05-10T08:13:40.765Z,45.65
2023-05-10T08:16:07.084Z,45.65
2023-05-10T08:18:33.670Z,45.70
2023-05-10T08:21:00.030Z,45.50
2023-05-10T08:23:26.533Z,45.44
2023-05-10T08:25:52.808Z,45.99
2023-05-10T08:28:19.063Z,45.92
2023-05-10T08:30:45.418Z,45.77
2023-05-10T08:33:11.763Z,46.17
2023-05-10T08:35:38.056Z,45.70
2023-05-10T08:38:04.664Z,44.06
2023-05-10T08:40:30.982Z,43.70
2023-05-10T08:43:07.496Z,43.97
2023-05-10T08:45:37.166Z,44.06
2023-05-10T08:48:05.360Z,44.30
2023-05-10T08:50:32.050Z,43.75
2023-05-10T08:53:00.347Z,43.86
2023-05-10T08:55:26.696Z,43.95
2023-05-10T08:57:53.419Z,44.74
2023-05-10T09:00:20.289Z,44.61
2023-05-10T09:02:46.704Z,43.16
2023-05-10T09:05:13.148Z,42.18
2023-05-10T09:07:39.528Z,42.51
2023-05-10T09:10:06.496Z,43.45
2023-05-10T09:12:32.966Z,43.74
2023-05-10T09:15:00.226Z,43.28
2023-05-10T09:17:27.674Z,42.23
2023-05-10T09:20:00.611Z,42.14
2023-05-10T09:22:27.342Z,42.68
2023-05-10T09:25:05.838Z,42.79
2023-05-10T09:27:32.154Z,43.52
2023-05-10T09:29:58.423Z,43.06
2023-05-10T09:32:41.814Z,42.58
2023-05-10T09:35:08.138Z,42.15
2023-05-10T09:37:34.395Z,42.34
2023-05-10T09:40:00.721Z,41.32
2023-05-10T09:42:27.121Z,41.55
2023-05-10T09:44:53.381Z,41.67
2023-05-10T09:47:19.772Z,40.86
2023-05-10T09:49:49.732Z,42.10
2023-05-10T09:52:15.964Z,42.70
2023-05-10T09:54:52.376Z,42.96
2023-05-10T09:57:22.459Z,43.07
2023-05-10T09:59:49.240Z,41.76
2023-05-10T10:02:15.702Z,42.58
2023-05-10T10:04:42.396Z,44.09
2023-05-10T10:07:09.174Z,40.57
2023-05-10T10:09:35.578Z,39.97
2023-05-10T10:12:02.219Z,38.81
2023-05-10T10:14:29.238Z,41.71
2023-05-10T10:17:05.890Z,40.57
2023-05-10T10:19:34.806Z,40.33
2023-05-10T10:22:01.040Z,40.77
2023-05-10T10:24:27.401Z,40.06
2023-05-10T10:26:57.571Z,39.99
2023-05-10T10:29:26.722Z,38.62
2023-05-10T10:32:04.237Z,38.86
2023-05-10T10:34:31.261Z,37.63
2023-05-10T10:36:58.078Z,37.81
2023-05-10T10:39:24.698Z,38.06
2023-05-10T10:41:52.512Z,36.61
2023-05-10T10:44:24.841Z,36.98
2023-05-10T10:47:10.391Z,35.97
2023-05-10T10:49:51.959Z,37.73
2023-05-10T10:52:24.193Z,36.82
2023-05-10T10:54:51.535Z,37.36
2023-05-10T10:57:19.269Z,37.47
2023-05-10T10:59:45.660Z,37.83
2023-05-10T11:02:33.128Z,34.79
2023-05-10T11:04:59.545Z,35.10
2023-05-10T11:07:26.640Z,34.15
2023-05-10T11:09:52.898Z,34.96
2023-05-10T11:12:19.215Z,34.69
2023-05-10T11:14:50.043Z,33.96
2023-05-10T11:17:23.964Z,34.55
2023-05-10T11:20:22.679Z,33.13
2023-05-10T11:22:49.595Z,34.03
2023-05-10T11:25:15.881Z,35.02
2023-05-10T11:27:42.168Z,35.85
2023-05-10T11:30:10.141Z,34.93
2023-05-10T11:32:40.955Z,33.67
2023-05-10T11:35:08.193Z,31.85
2023-05-10T11:37:34.483Z,32.20
2023-05-10T11:40:00.777Z,33.79
2023-05-10T11:42:29.902Z,33.74
2023-05-10T11:44:56.387Z,30.90
2023-05-10T11:47:22.916Z,30.56
2023-05-10T11:49:49.290Z,28.38
2023-05-10T11:52:15.549Z,25.68
2023-05-10T11:54:51.490Z,26.29
2023-05-10T11:57:21.516Z,27.77
2023-05-10T11:59:47.768Z,28.70
2023-05-10T12:02:14.504Z,27.51
2023-05-10T12:04:41.488Z,27.96
2023-05-10T12:07:07.865Z,25.39
2023-05-10T12:09:43.171Z,25.91
2023-05-10T12:12:10.359Z,26.76
2023-05-10T12:14:36.732Z,26.24
2023-05-10T12:17:03.082Z,25.54
2023-05-10T12:19:37.126Z,25.77
2023-05-10T12:22:05.102Z,25.68
2023-05-10T12:24:31.449Z,24.37
2023-05-10T12:27:06.654Z,23.45
2023-05-10T12:29:32.924Z,22.03
2023-05-10T12:32:00.224Z,22.75
2023-05-10T12:34:27.299Z,23.11
2023-05-10T12:36:54.061Z,23.48
2023-05-10T12:39:20.346Z,24.15
2023-05-10T12:41:46.613Z,25.52
2023-05-10T12:44:12.900Z,24.93
2023-05-10T12:46:39.231Z,23.14
2023-05-10T12:49:09.372Z,21.92
2023-05-10T12:51:36.284Z,22.67
2023-05-10T12:54:03.209Z,23.39
2023-05-10T12:56:29.626Z,22.20
2023-05-10T12:58:55.962Z,20.68
2023-05-10T13:01:22.362Z,20.18
2023-05-10T13:03:48.641Z,21.43
2023-05-10T13:06:14.985Z,21.00
2023-05-10T13:08:41.319Z,20.51
2023-05-10T13:11:07.680Z,20.67
2023-05-10T13:13:34.074Z,20.60
2023-05-10T13:16:00.373Z,21.11
2023-05-10T13:18:26.828Z,21.39
2023-05-10T13:20:53.952Z,21.36
2023-05-10T13:23:20.368Z,20.71
2023-05-10T13:25:46.685Z,21.56
2023-05-10T13:28:12.978Z,21.94
2023-05-10T13:30:41.176Z,20.00
2023-05-10T13:33:07.522Z,21.25
2023-05-10T13:35:33.871Z,20.96
2023-05-10T13:38:00.261Z,20.47
2023-05-10T13:40:26.585Z,21.74
2023-05-10T13:42:52.932Z,21.38
2023-05-10T13:45:19.433Z,20.31
2023-05-10T13:47:45.987Z,21.08
2023-05-10T13:50:12.272Z,19.33
2023-05-10T13:52:38.711Z,18.54
2023-05-10T13:55:05.536Z,19.23
2023-05-10T13:57:31.823Z,19.85
2023-05-10T13:59:58.493Z,18.65
2023-05-10T14:02:24.891Z,19.55
2023-05-10T14:04:51.264Z,18.40
2023-05-10T14:07:17.584Z,18.16
2023-05-10T14:09:43.992Z,17.67
2023-05-10T14:12:10.344Z,18.56
2023-05-10T14:14:36.765Z,19.76
2023-05-10T14:17:03.328Z,21.32
2023-05-10T14:19:29.666Z,21.01
2023-05-10T14:21:55.941Z,20.11
2023-05-10T14:24:22.237Z,20.79
2023-05-10T14:26:48.510Z,20.25
2023-05-10T14:29:14.819Z,20.88
2023-05-10T14:31:41.166Z,20.56
2023-05-10T14:34:07.512Z,20.09
2023-05-10T14:36:33.831Z,20.77
2023-05-10T14:39:00.172Z,20.78
2023-05-10T14:41:26.648Z,21.24
2023-05-10T14:43:52.949Z,21.06
2023-05-10T14:46:19.364Z,19.84
2023-05-10T14:48:45.759Z,19.89
2023-05-10T14:51:12.089Z,20.31
2023-05-10T14:53:38.418Z,22.26
2023-05-10T14:56:04.926Z,22.39
2023-05-10T14:58:34.547Z,23.46
2023-05-10T15:01:01.193Z,23.30
2023-05-10T15:03:28.059Z,23.68
2023-05-10T15:05:54.961Z,23.10
2023-05-10T15:08:21.260Z,22.46
2023-05-10T15:10:47.581Z,20.27
2023-05-10T15:13:13.903Z,21.21
2023-05-10T15:15:40.230Z,21.39
2023-05-10T15:18:06.740Z,20.83
2023-05-10T15:20:33.140Z,20.74
2023-05-10T15:22:59.435Z,20.03
2023-05-10T15:25:25.775Z,20.24
2023-05-10T15:27:52.161Z,20.03
2023-05-10T15:30:18.603Z,19.11
2023-05-10T15:32:44.946Z,19.59
2023-05-10T15:35:11.290Z,19.99
2023-05-10T15:37:38.073Z,19.77
2023-05-10T15:40:07.493Z,20.18
2023-05-10T15:42:33.887Z,20.15
2023-05-10T15:45:00.264Z,22.19
2023-05-10T15:47:26.715Z,23.45
2023-05-10T15:49:53.196Z,23.67
2023-05-10T15:52:20.429Z,23.07
2023-05-10T15:54:46.707Z,23.65
2023-05-10T15:57:12.983Z,24.57
2023-05-10T15:59:39.374Z,25.44
2023-05-10T16:02:06.627Z,26.58
2023-05-10T16:04:33.142Z,27.18
2023-05-10T16:06:59.441Z,27.61
2023-05-10T16:09:25.670Z,29.81
2023-05-10T16:11:52.036Z,30.85
2023-05-10T16:14:18.742Z,29.69
2023-05-10T16:16:45.187Z,28.64
2023-05-10T16:19:12.200Z,28.32
2023-05-10T16:21:40.791Z,27.26
2023-05-10T16:24:08.094Z,26.10
2023-05-10T16:26:34.385Z,25.23
2023-05-10T16:29:01.234Z,24.42
2023-05-10T16:31:27.733Z,24.31
2023-05-10T16:33:54.110Z,23.47
2023-05-10T16:36:20.549Z,23.98
2023-05-10T16:38:48.075Z,24.10
2023-05-10T16:41:14.655Z,22.37
2023-05-10T16:43:41.007Z,23.31
2023-05-10T16:46:10.860Z,24.70
2023-05-10T16:48:37.218Z,26.62
2023-05-10T16:51:03.527Z,27.92
2023-05-10T16:53:30.101Z,29.18
2023-05-10T16:55:56.592Z,29.96
2023-05-10T16:58:22.920Z,28.71
2023-05-10T17:00:49.323Z,28.19
2023-05-10T17:03:15.857Z,28.32
2023-05-10T17:05:42.278Z,28.63
2023-05-10T17:08:09.165Z,30.17
2023-05-10T17:10:35.838Z,31.05
2023-05-10T17:13:02.661Z,31.39
2023-05-10T17:15:29.096Z,32.38
2023-05-10T17:17:55.569Z,32.31
2023-05-10T17:20:21.999Z,35.07
2023-05-10T17:22:48.431Z,34.85
2023-05-10T17:25:18.098Z,35.61
2023-05-10T17:27:44.777Z,35.26
2023-05-10T17:30:11.346Z,35.24
2023-05-10T17:32:37.696Z,36.15
2023-05-10T17:35:05.355Z,35.94
2023-05-10T17:37:31.818Z,39.23
2023-05-10T17:40:01.253Z,38.91
2023-05-10T17:42:27.602Z,40.09
2023-05-10T17:44:54.278Z,39.67
2023-05-10T17:47:20.567Z,40.49
2023-05-10T17:49:47.052Z,40.64
2023-05-10T17:52:13.368Z,42.69
2023-05-10T17:54:39.677Z,39.84
2023-05-10T17:57:06.061Z,41.43
2023-05-10T17:59:32.423Z,43.90
2023-05-10T18:01:59.518Z,41.03
2023-05-10T18:04:26.286Z,41.83
2023-05-10T18:06:52.841Z,40.20
2023-05-10T18:09:19.136Z,42.52
2023-05-10T18:11:45.418Z,41.73
2023-05-10T18:14:11.825Z,42.53
2023-05-10T18:16:38.193Z,43.56
2023-05-10T18:19:04.939Z,45.58
2023-05-10T18:21:31.804Z,43.82
2023-05-10T18:23:58.292Z,42.51
2023-05-10T18:26:25.125Z,44.13
2023-05-10T18:28:52.005Z,42.94
2023-05-10T18:31:18.373Z,45.09
2023-05-10T18:33:44.790Z,48.15
2023-05-10T18:36:11.137Z,47.37
2023-05-10T18:38:37.615Z,47.55
2023-05-10T18:41:04.759Z,48.44
2023-05-10T18:43:31.476Z,46.79
2023-05-10T18:45:57.811Z,48.06
2023-05-10T18:48:24.253Z,49.24
2023-05-10T18:50:50.647Z,49.14
2023-05-10T18:53:17.021Z,48.61
2023-05-10T18:55:44.800Z,50.29
2023-05-10T18:58:11.345Z,50.12
2023-05-10T19:00:37.816Z,49.81
2023-05-10T19:03:04.364Z,49.67
2023-05-10T19:05:31.179Z,49.74
2023-05-10T19:07:57.725Z,49.19
2023-05-10T19:10:24.054Z,50.65
2023-05-10T19:12:50.686Z,50.37
2023-05-10T19:15:19.264Z,49.80
2023-05-10T19:17:47.405Z,48.56
2023-05-10T19:20:13.801Z,50.43
2023-05-10T19:22:54.320Z,49.69
2023-05-10T19:25:27.434Z,48.84
2023-05-10T19:27:56.745Z,48.72
2023-05-10T19:30:26.626Z,47.74
2023-05-10T19:32:57.282Z,48.86
2023-05-10T19:35:26.474Z,48.37
2023-05-10T19:37:53.210Z,49.29
2023-05-10T19:40:20.492Z,48.68
2023-05-10T19:42:49.013Z,49.10
2023-05-10T19:45:15.841Z,49.50
2023-05-10T19:47:42.749Z,49.40
2023-05-10T19:50:09.351Z,48.90
2023-05-10T19:52:35.745Z,48.41
2023-05-10T19:55:03.140Z,48.82
2023-05-10T19:57:29.666Z,49.35
2023-05-10T19:59:56.033Z,49.16
2023-05-10T20:02:22.435Z,48.64
2023-05-10T20:04:48.840Z,49.19
2023-05-10T20:07:15.171Z,48.38
2023-05-10T20:09:42.438Z,49.54
2023-05-10T20:12:09.826Z,49.21
2023-05-10T20:14:41.990Z,49.82
2023-05-10T20:17:11.106Z,49.71
2023-05-10T20:19:38.478Z,48.83
2023-05-10T20:22:07.488Z,49.51
2023-05-10T20:24:39.145Z,49.48
2023-05-10T20:27:07.081Z,49.53
2023-05-10T20:29:33.494Z,49.47
2023-05-10T20:32:00.017Z,48.52
2023-05-10T20:34:26.389Z,48.53
2023-05-10T20:36:53.329Z,49.22
2023-05-10T20:39:19.892Z,48.75
2023-05-10T20:41:46.230Z,49.40
2023-05-10T20:44:12.537Z,50.73
2023-05-10T20:46:39.099Z,49.04
2023-05-10T20:49:07.688Z,49.24
2023-05-10T20:51:34.044Z,50.11
2023-05-10T20:54:00.626Z,50.67
2023-05-10T20:56:27.228Z,50.14
2023-05-10T20:58:53.498Z,49.83
2023-05-10T21:01:19.890Z,50.84
2023-05-10T21:03:46.245Z,51.13
2023-05-10T21:06:12.598Z,50.21
2023-05-10T21:08:39.011Z,50.54
2023-05-10T21:11:05.275Z,50.82
2023-05-10T21:13:33.192Z,50.33
2023-05-10T21:15:59.530Z,50.78
2023-05-10T21:18:26.003Z,50.58
2023-05-10T21:20:52.354Z,51.78
2023-05-10T21:23:18.679Z,51.41
2023-05-10T21:25:44.985Z,50.86
2023-05-10T21:28:11.287Z,51.32
2023-05-10T21:30:37.751Z,51.20
2023-05-10T21:33:04.108Z,51.50
2023-05-10T21:35:30.493Z,50.41
2023-05-10T21:37:56.921Z,50.56
2023-05-10T21:40:23.197Z,50.88
2023-05-10T21:42:49.974Z,50.83
2023-05-10T21:45:16.414Z,50.85
2023-05-10T21:47:42.753Z,50.41
2023-05-10T21:50:09.363Z,50.19
2023-05-10T21:52:36.083Z,51.42
2023-05-10T21:55:02.441Z,50.39
2023-05-10T21:57:28.747Z,50.73
2023-05-10T21:59:55.085Z,50.23
2023-05-10T22:02:21.691Z,50.27
2023-05-10T22:04:48.028Z,50.41
2023-05-10T22:07:14.344Z,51.36
2023-05-10T22:09:40.564Z,50.73
2023-05-10T22:12:06.811Z,50.77
2023-05-10T22:14:33.349Z,50.90
2023-05-10T22:16:59.623Z,50.29
2023-05-10T22:19:25.897Z,50.47
2023-05-10T22:21:52.664Z,50.43
2023-05-10T22:24:18.944Z,50.43
2023-05-10T22:26:45.193Z,51.17
2023-05-10T22:29:11.538Z,51.45
2023-05-10T22:31:37.816Z,50.72
2023-05-10T22:34:04.258Z,51.05
2023-05-10T22:36:30.589Z,50.87
2023-05-10T22:38:56.872Z,50.89
2023-05-10T22:41:23.122Z,50.72
2023-05-10T22:43:49.627Z,50.79
2023-05-10T22:46:15.935Z,51.05
2023-05-10T22:48:42.213Z,51.19
2023-05-10T22:51:08.959Z,51.06
2023-05-10T22:53:35.234Z,50.94
2023-05-10T22:56:01.649Z,51.35
2023-05-10T22:58:27.984Z,51.09
2023-05-10T23:00:54.432Z,50.94
2023-05-10T23:03:20.726Z,50.92
2023-05-10T23:05:47.316Z,50.98
2023-05-10T23:08:13.577Z,50.95
2023-05-10T23:10:39.834Z,50.98
2023-05-10T23:13:06.166Z,51.00
2023-05-10T23:15:32.566Z,50.97
2023-05-10T23:17:59.053Z,50.97
2023-05-10T23:20:25.298Z,50.97
2023-05-10T23:22:51.670Z,50.98
2023-05-10T23:25:17.965Z,50.98
2023-05-10T23:27:44.317Z,50.97
2023-05-10T23:30:10.740Z,50.96
2023-05-10T23:32:37.194Z,50.96
2023-05-10T23:35:03.721Z,50.96
2023-05-10T23:37:29.980Z,50.98
2023-05-10T23:39:56.309Z,50.95
2023-05-10T23:42:22.763Z,51.03
2023-05-10T23:44:50.027Z,51.09
2023-05-10T23:47:16.248Z,51.09
2023-05-10T23:49:42.524Z,51.12
2023-05-10T23:52:08.845Z,51.18
2023-05-10T23:54:35.153Z,51.26
2023-05-10T23:57:01.539Z,51.28
2023-05-10T23:59:27.886Z,51.38
